sensor_id;sensor_type;location;lat;lon;timestamp;temperature;humidity
44166;DHT22;30476;53.468;9.826;2023-09-18T00:00:56;21.40;99.90
44166;DHT22;30476;53.468;9.826;2023-09-18T00:03:23;21.40;99.90
44166;DHT22;30476;53.468;9.826;2023-09-18T00:05:52;21.40;99.90
44166;DHT22;30476;53.468;9.826;2023-09-18T00:08:19;21.30;99.90
44166;DHT22;30476;53.468;9.826;2023-09-18T00:10:49;21.20;99.90
44166;DHT22;30476;53.468;9.826;2023-09-18T00:13:16;21.20;99.90
44166;DHT22;30476;53.468;9.826;2023-09-18T00:15:42;21.10;99.90
44166;DHT22;30476;53.468;9.826;2023-09-18T00:18:10;21.10;99.90
44166;DHT22;30476;53.468;9.826;2023-09-18T00:20:36;21.10;99.90
44166;DHT22;30476;53.468;9.826;2023-09-18T00:23:02;21.00;99.90
44166;DHT22;30476;53.468;9.826;2023-09-18T00:25:28;20.90;99.90
44166;DHT22;30476;53.468;9.826;2023-09-18T00:27:54;20.90;99.90
44166;DHT22;30476;53.468;9.826;2023-09-18T00:30:19;20.90;99.90
44166;DHT22;30476;53.468;9.826;2023-09-18T00:32:45;20.80;99.90
44166;DHT22;30476;53.468;9.826;2023-09-18T00:35:12;20.70;99.90
44166;DHT22;30476;53.468;9.826;2023-09-18T00:37:38;20.70;99.90
44166;DHT22;30476;53.468;9.826;2023-09-18T00:40:06;20.70;99.90
44166;DHT22;30476;53.468;9.826;2023-09-18T00:42:32;20.60;99.90
44166;DHT22;30476;53.468;9.826;2023-09-18T00:44:58;20.60;99.90
44166;DHT22;30476;53.468;9.826;2023-09-18T00:47:24;20.60;99.90
44166;DHT22;30476;53.468;9.826;2023-09-18T00:49:52;20.50;99.90
44166;DHT22;30476;53.468;9.826;2023-09-18T00:52:19;20.50;99.90
44166;DHT22;30476;53.468;9.826;2023-09-18T00:54:46;20.50;99.90
44166;DHT22;30476;53.468;9.826;2023-09-18T00:57:13;20.50;99.90
44166;DHT22;30476;53.468;9.826;2023-09-18T00:59:39;20.50;99.90
44166;DHT22;30476;53.468;9.826;2023-09-18T01:02:06;20.50;99.90
44166;DHT22;30476;53.468;9.826;2023-09-18T01:04:33;20.50;99.90
44166;DHT22;30476;53.468;9.826;2023-09-18T01:06:59;20.50;99.90
44166;DHT22;30476;53.468;9.826;2023-09-18T01:09:32;20.50;99.90
44166;DHT22;30476;53.468;9.826;2023-09-18T01:14:53;20.40;99.90
44166;DHT22;30476;53.468;9.826;2023-09-18T01:17:22;20.50;99.90
44166;DHT22;30476;53.468;9.826;2023-09-18T01:19:48;20.50;99.90
44166;DHT22;30476;53.468;9.826;2023-09-18T01:22:16;20.50;99.90
44166;DHT22;30476;53.468;9.826;2023-09-18T01:24:44;20.50;99.90
44166;DHT22;30476;53.468;9.826;2023-09-18T01:27:14;20.40;99.90
44166;DHT22;30476;53.468;9.826;2023-09-18T01:29:40;20.50;99.90
44166;DHT22;30476;53.468;9.826;2023-09-18T01:32:06;20.50;99.90
44166;DHT22;30476;53.468;9.826;2023-09-18T01:34:37;20.40;99.90
44166;DHT22;30476;53.468;9.826;2023-09-18T01:37:05;20.50;99.90
44166;DHT22;30476;53.468;9.826;2023-09-18T01:39:34;20.50;99.90
44166;DHT22;30476;53.468;9.826;2023-09-18T01:42:05;20.50;99.90
44166;DHT22;30476;53.468;9.826;2023-09-18T01:44:32;20.40;99.90
44166;DHT22;30476;53.468;9.826;2023-09-18T01:46:59;20.40;99.90
44166;DHT22;30476;53.468;9.826;2023-09-18T01:49:30;20.40;99.90
44166;DHT22;30476;53.468;9.826;2023-09-18T01:51:56;20.40;99.90
44166;DHT22;30476;53.468;9.826;2023-09-18T01:54:22;20.40;99.90
44166;DHT22;30476;53.468;9.826;2023-09-18T01:56:48;20.40;99.90
44166;DHT22;30476;53.468;9.826;2023-09-18T01:59:14;20.30;99.90
44166;DHT22;30476;53.468;9.826;2023-09-18T02:01:39;20.40;99.90
44166;DHT22;30476;53.468;9.826;2023-09-18T02:04:05;20.40;99.90
44166;DHT22;30476;53.468;9.826;2023-09-18T02:06:31;20.30;99.90
44166;DHT22;30476;53.468;9.826;2023-09-18T02:08:57;20.30;99.90
44166;DHT22;30476;53.468;9.826;2023-09-18T02:11:22;20.30;99.90
44166;DHT22;30476;53.468;9.826;2023-09-18T02:13:48;20.30;99.90
44166;DHT22;30476;53.468;9.826;2023-09-18T02:16:14;20.30;99.90
44166;DHT22;30476;53.468;9.826;2023-09-18T02:18:40;20.30;99.90
44166;DHT22;30476;53.468;9.826;2023-09-18T02:21:05;20.30;99.90
44166;DHT22;30476;53.468;9.826;2023-09-18T02:23:31;20.30;99.90
44166;DHT22;30476;53.468;9.826;2023-09-18T02:25:57;20.40;99.90
44166;DHT22;30476;53.468;9.826;2023-09-18T02:28:23;20.40;99.90
44166;DHT22;30476;53.468;9.826;2023-09-18T02:30:49;20.40;99.90
44166;DHT22;30476;53.468;9.826;2023-09-18T02:33:15;20.40;99.90
44166;DHT22;30476;53.468;9.826;2023-09-18T02:35:41;20.40;99.90
44166;DHT22;30476;53.468;9.826;2023-09-18T02:38:09;20.40;99.90
44166;DHT22;30476;53.468;9.826;2023-09-18T02:40:35;20.40;99.90
44166;DHT22;30476;53.468;9.826;2023-09-18T02:43:00;20.40;99.90
44166;DHT22;30476;53.468;9.826;2023-09-18T02:45:27;20.40;99.90
44166;DHT22;30476;53.468;9.826;2023-09-18T02:47:53;20.40;99.90
44166;DHT22;30476;53.468;9.826;2023-09-18T02:50:19;20.40;99.90
44166;DHT22;30476;53.468;9.826;2023-09-18T02:52:45;20.40;99.90
44166;DHT22;30476;53.468;9.826;2023-09-18T02:55:10;20.40;99.90
44166;DHT22;30476;53.468;9.826;2023-09-18T02:57:36;20.40;99.90
44166;DHT22;30476;53.468;9.826;2023-09-18T03:00:03;20.40;99.90
44166;DHT22;30476;53.468;9.826;2023-09-18T03:02:29;20.50;99.90
44166;DHT22;30476;53.468;9.826;2023-09-18T03:04:55;20.40;99.90
44166;DHT22;30476;53.468;9.826;2023-09-18T03:07:21;20.40;99.90
44166;DHT22;30476;53.468;9.826;2023-09-18T03:09:48;20.40;99.90
44166;DHT22;30476;53.468;9.826;2023-09-18T03:12:13;20.40;99.90
44166;DHT22;30476;53.468;9.826;2023-09-18T03:14:39;20.40;99.90
44166;DHT22;30476;53.468;9.826;2023-09-18T03:17:05;20.40;99.90
44166;DHT22;30476;53.468;9.826;2023-09-18T03:19:31;20.40;99.90
44166;DHT22;30476;53.468;9.826;2023-09-18T03:21:56;20.40;99.90
44166;DHT22;30476;53.468;9.826;2023-09-18T03:24:22;20.40;99.90
44166;DHT22;30476;53.468;9.826;2023-09-18T03:26:48;20.40;99.90
44166;DHT22;30476;53.468;9.826;2023-09-18T03:29:14;20.40;99.90
44166;DHT22;30476;53.468;9.826;2023-09-18T03:31:40;20.30;99.90
44166;DHT22;30476;53.468;9.826;2023-09-18T03:34:06;20.30;99.90
44166;DHT22;30476;53.468;9.826;2023-09-18T03:36:32;20.30;99.90
44166;DHT22;30476;53.468;9.826;2023-09-18T03:38:58;20.20;99.90
44166;DHT22;30476;53.468;9.826;2023-09-18T03:41:24;20.20;99.90
44166;DHT22;30476;53.468;9.826;2023-09-18T03:43:50;20.20;99.90
44166;DHT22;30476;53.468;9.826;2023-09-18T03:46:16;20.10;99.90
44166;DHT22;30476;53.468;9.826;2023-09-18T03:48:41;20.10;99.90
44166;DHT22;30476;53.468;9.826;2023-09-18T03:51:07;20.10;99.90
44166;DHT22;30476;53.468;9.826;2023-09-18T03:53:38;20.10;99.90
44166;DHT22;30476;53.468;9.826;2023-09-18T03:56:03;20.10;99.90
44166;DHT22;30476;53.468;9.826;2023-09-18T03:58:29;20.10;99.90
44166;DHT22;30476;53.468;9.826;2023-09-18T04:00:55;20.10;99.90
44166;DHT22;30476;53.468;9.826;2023-09-18T04:03:21;20.10;99.90
44166;DHT22;30476;53.468;9.826;2023-09-18T04:05:47;20.10;99.90
44166;DHT22;30476;53.468;9.826;2023-09-18T04:08:12;20.10;99.90
44166;DHT22;30476;53.468;9.826;2023-09-18T04:10:39;20.10;99.90
44166;DHT22;30476;53.468;9.826;2023-09-18T04:13:04;20.10;99.90
44166;DHT22;30476;53.468;9.826;2023-09-18T04:15:30;20.10;99.90
44166;DHT22;30476;53.468;9.826;2023-09-18T04:17:56;20.10;99.90
44166;DHT22;30476;53.468;9.826;2023-09-18T04:20:22;20.10;99.90
44166;DHT22;30476;53.468;9.826;2023-09-18T04:23:17;20.10;99.90
44166;DHT22;30476;53.468;9.826;2023-09-18T04:25:44;20.10;99.90
44166;DHT22;30476;53.468;9.826;2023-09-18T04:28:12;20.10;99.90
44166;DHT22;30476;53.468;9.826;2023-09-18T04:30:38;20.10;99.90
44166;DHT22;30476;53.468;9.826;2023-09-18T04:33:04;20.10;99.90
44166;DHT22;30476;53.468;9.826;2023-09-18T04:35:29;20.10;99.90
44166;DHT22;30476;53.468;9.826;2023-09-18T04:37:58;20.10;99.90
44166;DHT22;30476;53.468;9.826;2023-09-18T04:40:25;20.10;99.90
44166;DHT22;30476;53.468;9.826;2023-09-18T04:42:52;20.10;99.90
44166;DHT22;30476;53.468;9.826;2023-09-18T04:45:18;20.10;99.90
44166;DHT22;30476;53.468;9.826;2023-09-18T04:47:44;20.10;99.90
44166;DHT22;30476;53.468;9.826;2023-09-18T04:50:10;20.10;99.90
44166;DHT22;30476;53.468;9.826;2023-09-18T04:52:36;20.10;99.90
44166;DHT22;30476;53.468;9.826;2023-09-18T04:55:02;20.00;99.90
44166;DHT22;30476;53.468;9.826;2023-09-18T04:57:28;20.00;99.90
44166;DHT22;30476;53.468;9.826;2023-09-18T04:59:54;20.10;99.90
44166;DHT22;30476;53.468;9.826;2023-09-18T05:02:21;20.10;99.90
44166;DHT22;30476;53.468;9.826;2023-09-18T05:04:46;20.00;99.90
44166;DHT22;30476;53.468;9.826;2023-09-18T05:07:12;20.00;99.90
44166;DHT22;30476;53.468;9.826;2023-09-18T05:09:38;20.00;99.90
44166;DHT22;30476;53.468;9.826;2023-09-18T05:12:06;19.90;99.90
44166;DHT22;30476;53.468;9.826;2023-09-18T05:14:34;19.90;99.90
44166;DHT22;30476;53.468;9.826;2023-09-18T05:17:00;19.90;99.90
44166;DHT22;30476;53.468;9.826;2023-09-18T05:19:25;19.90;99.90
44166;DHT22;30476;53.468;9.826;2023-09-18T05:21:51;19.90;99.90
44166;DHT22;30476;53.468;9.826;2023-09-18T05:24:17;20.00;99.90
44166;DHT22;30476;53.468;9.826;2023-09-18T05:26:52;20.00;99.90
44166;DHT22;30476;53.468;9.826;2023-09-18T05:29:19;20.00;99.90
44166;DHT22;30476;53.468;9.826;2023-09-18T05:31:45;20.00;99.90
44166;DHT22;30476;53.468;9.826;2023-09-18T05:34:12;19.90;99.90
44166;DHT22;30476;53.468;9.826;2023-09-18T05:36:38;19.90;99.90
44166;DHT22;30476;53.468;9.826;2023-09-18T05:39:05;19.80;99.90
44166;DHT22;30476;53.468;9.826;2023-09-18T05:41:31;19.80;99.90
44166;DHT22;30476;53.468;9.826;2023-09-18T05:43:56;19.80;99.90
44166;DHT22;30476;53.468;9.826;2023-09-18T05:46:22;19.80;99.90
44166;DHT22;30476;53.468;9.826;2023-09-18T05:48:48;19.90;99.90
44166;DHT22;30476;53.468;9.826;2023-09-18T05:51:14;19.80;99.90
44166;DHT22;30476;53.468;9.826;2023-09-18T05:53:40;19.90;99.90
44166;DHT22;30476;53.468;9.826;2023-09-18T05:56:05;19.90;99.90
44166;DHT22;30476;53.468;9.826;2023-09-18T05:58:31;19.90;99.90
44166;DHT22;30476;53.468;9.826;2023-09-18T06:00:58;19.80;99.90
44166;DHT22;30476;53.468;9.826;2023-09-18T06:03:29;19.90;99.90
44166;DHT22;30476;53.468;9.826;2023-09-18T06:05:56;19.80;99.90
44166;DHT22;30476;53.468;9.826;2023-09-18T06:08:22;19.90;99.90
44166;DHT22;30476;53.468;9.826;2023-09-18T06:10:49;19.90;99.90
44166;DHT22;30476;53.468;9.826;2023-09-18T06:13:15;19.80;99.90
44166;DHT22;30476;53.468;9.826;2023-09-18T06:15:40;19.80;99.90
44166;DHT22;30476;53.468;9.826;2023-09-18T06:18:06;19.80;99.90
44166;DHT22;30476;53.468;9.826;2023-09-18T06:20:32;19.90;99.90
44166;DHT22;30476;53.468;9.826;2023-09-18T06:22:58;19.90;99.90
44166;DHT22;30476;53.468;9.826;2023-09-18T06:25:23;20.00;99.90
44166;DHT22;30476;53.468;9.826;2023-09-18T06:27:50;19.90;99.90
44166;DHT22;30476;53.468;9.826;2023-09-18T06:30:15;20.00;99.90
44166;DHT22;30476;53.468;9.826;2023-09-18T06:32:41;20.00;99.90
44166;DHT22;30476;53.468;9.826;2023-09-18T06:35:08;20.00;99.90
44166;DHT22;30476;53.468;9.826;2023-09-18T06:37:34;20.00;99.90
44166;DHT22;30476;53.468;9.826;2023-09-18T06:39:59;20.10;99.90
44166;DHT22;30476;53.468;9.826;2023-09-18T06:42:28;20.10;99.90
44166;DHT22;30476;53.468;9.826;2023-09-18T06:44:54;20.10;99.90
44166;DHT22;30476;53.468;9.826;2023-09-18T06:47:21;20.10;99.90
44166;DHT22;30476;53.468;9.826;2023-09-18T06:49:46;20.10;99.90
44166;DHT22;30476;53.468;9.826;2023-09-18T06:52:12;20.10;99.90
44166;DHT22;30476;53.468;9.826;2023-09-18T06:54:38;20.20;99.90
44166;DHT22;30476;53.468;9.826;2023-09-18T06:57:04;20.30;99.90
44166;DHT22;30476;53.468;9.826;2023-09-18T06:59:30;20.30;99.90
44166;DHT22;30476;53.468;9.826;2023-09-18T07:01:56;20.30;99.90
44166;DHT22;30476;53.468;9.826;2023-09-18T07:04:22;20.40;99.90
44166;DHT22;30476;53.468;9.826;2023-09-18T07:06:47;20.40;99.90
44166;DHT22;30476;53.468;9.826;2023-09-18T07:09:13;20.50;99.90
44166;DHT22;30476;53.468;9.826;2023-09-18T07:11:39;20.60;99.90
44166;DHT22;30476;53.468;9.826;2023-09-18T07:14:05;20.60;99.90
44166;DHT22;30476;53.468;9.826;2023-09-18T07:16:32;20.70;99.90
44166;DHT22;30476;53.468;9.826;2023-09-18T07:18:59;20.80;99.90
44166;DHT22;30476;53.468;9.826;2023-09-18T07:21:25;20.90;99.90
44166;DHT22;30476;53.468;9.826;2023-09-18T07:23:51;21.00;99.90
44166;DHT22;30476;53.468;9.826;2023-09-18T07:26:16;21.00;99.90
44166;DHT22;30476;53.468;9.826;2023-09-18T07:28:42;21.10;99.90
44166;DHT22;30476;53.468;9.826;2023-09-18T07:31:11;21.20;99.90
44166;DHT22;30476;53.468;9.826;2023-09-18T07:33:37;21.30;99.90
44166;DHT22;30476;53.468;9.826;2023-09-18T07:36:03;21.30;99.90
44166;DHT22;30476;53.468;9.826;2023-09-18T07:38:29;21.40;99.90
44166;DHT22;30476;53.468;9.826;2023-09-18T07:40:56;21.40;99.90
44166;DHT22;30476;53.468;9.826;2023-09-18T07:43:23;21.40;99.90
44166;DHT22;30476;53.468;9.826;2023-09-18T07:45:49;21.40;99.90
44166;DHT22;30476;53.468;9.826;2023-09-18T07:48:15;21.50;99.90
44166;DHT22;30476;53.468;9.826;2023-09-18T07:50:45;21.60;99.90
44166;DHT22;30476;53.468;9.826;2023-09-18T07:53:11;21.60;99.90
44166;DHT22;30476;53.468;9.826;2023-09-18T07:55:37;21.60;99.90
44166;DHT22;30476;53.468;9.826;2023-09-18T07:58:04;21.70;99.90
44166;DHT22;30476;53.468;9.826;2023-09-18T08:00:30;21.70;99.90
44166;DHT22;30476;53.468;9.826;2023-09-18T08:02:56;21.70;99.90
44166;DHT22;30476;53.468;9.826;2023-09-18T08:05:29;21.80;99.90
44166;DHT22;30476;53.468;9.826;2023-09-18T08:07:56;21.90;99.90
44166;DHT22;30476;53.468;9.826;2023-09-18T08:10:23;21.90;99.90
44166;DHT22;30476;53.468;9.826;2023-09-18T08:12:48;21.90;99.90
44166;DHT22;30476;53.468;9.826;2023-09-18T08:15:17;22.00;99.90
44166;DHT22;30476;53.468;9.826;2023-09-18T08:17:42;22.00;99.90
44166;DHT22;30476;53.468;9.826;2023-09-18T08:20:09;22.00;99.90
44166;DHT22;30476;53.468;9.826;2023-09-18T08:22:39;22.00;99.90
44166;DHT22;30476;53.468;9.826;2023-09-18T08:25:06;22.00;99.90
44166;DHT22;30476;53.468;9.826;2023-09-18T08:27:37;22.10;99.90
44166;DHT22;30476;53.468;9.826;2023-09-18T08:30:06;22.10;99.90
44166;DHT22;30476;53.468;9.826;2023-09-18T08:32:32;22.10;99.90
44166;DHT22;30476;53.468;9.826;2023-09-18T08:34:59;22.20;99.90
44166;DHT22;30476;53.468;9.826;2023-09-18T08:37:27;22.20;99.90
44166;DHT22;30476;53.468;9.826;2023-09-18T08:39:53;22.20;99.90
44166;DHT22;30476;53.468;9.826;2023-09-18T08:42:20;22.20;99.90
44166;DHT22;30476;53.468;9.826;2023-09-18T08:44:49;22.20;99.90
44166;DHT22;30476;53.468;9.826;2023-09-18T08:47:18;22.20;99.90
44166;DHT22;30476;53.468;9.826;2023-09-18T08:49:46;22.30;99.90
44166;DHT22;30476;53.468;9.826;2023-09-18T08:52:15;22.30;99.90
44166;DHT22;30476;53.468;9.826;2023-09-18T08:54:42;22.30;99.90
44166;DHT22;30476;53.468;9.826;2023-09-18T08:57:08;22.30;99.90
44166;DHT22;30476;53.468;9.826;2023-09-18T08:59:35;22.40;99.90
44166;DHT22;30476;53.468;9.826;2023-09-18T09:02:02;22.40;99.90
44166;DHT22;30476;53.468;9.826;2023-09-18T09:04:28;22.50;99.90
44166;DHT22;30476;53.468;9.826;2023-09-18T09:06:54;22.50;99.90
44166;DHT22;30476;53.468;9.826;2023-09-18T09:09:23;22.50;99.90
44166;DHT22;30476;53.468;9.826;2023-09-18T09:11:50;22.60;99.90
44166;DHT22;30476;53.468;9.826;2023-09-18T09:14:16;22.60;99.90
44166;DHT22;30476;53.468;9.826;2023-09-18T09:16:49;22.70;99.90
44166;DHT22;30476;53.468;9.826;2023-09-18T09:19:16;22.80;99.90
44166;DHT22;30476;53.468;9.826;2023-09-18T09:21:43;22.90;99.90
44166;DHT22;30476;53.468;9.826;2023-09-18T09:24:12;23.00;99.90
44166;DHT22;30476;53.468;9.826;2023-09-18T09:26:42;23.00;99.90
44166;DHT22;30476;53.468;9.826;2023-09-18T09:29:19;23.10;99.90
44166;DHT22;30476;53.468;9.826;2023-09-18T09:31:47;23.20;99.90
44166;DHT22;30476;53.468;9.826;2023-09-18T09:34:24;23.40;99.90
44166;DHT22;30476;53.468;9.826;2023-09-18T09:36:53;23.50;99.90
44166;DHT22;30476;53.468;9.826;2023-09-18T09:39:19;23.60;99.90
44166;DHT22;30476;53.468;9.826;2023-09-18T09:41:47;23.70;99.90
44166;DHT22;30476;53.468;9.826;2023-09-18T09:44:15;23.80;99.90
44166;DHT22;30476;53.468;9.826;2023-09-18T09:46:48;23.90;99.90
44166;DHT22;30476;53.468;9.826;2023-09-18T09:49:14;24.00;99.90
44166;DHT22;30476;53.468;9.826;2023-09-18T09:51:42;24.00;99.90
44166;DHT22;30476;53.468;9.826;2023-09-18T09:54:08;24.10;99.90
44166;DHT22;30476;53.468;9.826;2023-09-18T09:57:02;24.10;99.90
44166;DHT22;30476;53.468;9.826;2023-09-18T09:59:28;24.20;99.90
44166;DHT22;30476;53.468;9.826;2023-09-18T10:01:55;24.20;99.90
44166;DHT22;30476;53.468;9.826;2023-09-18T10:04:27;24.20;99.90
44166;DHT22;30476;53.468;9.826;2023-09-18T10:07:06;24.20;99.90
44166;DHT22;30476;53.468;9.826;2023-09-18T10:09:35;24.10;99.90
44166;DHT22;30476;53.468;9.826;2023-09-18T10:12:03;24.10;99.90
44166;DHT22;30476;53.468;9.826;2023-09-18T10:14:35;24.10;99.90
44166;DHT22;30476;53.468;9.826;2023-09-18T10:17:16;24.10;99.90
44166;DHT22;30476;53.468;9.826;2023-09-18T10:19:54;24.10;99.90
44166;DHT22;30476;53.468;9.826;2023-09-18T10:22:30;24.10;99.90
44166;DHT22;30476;53.468;9.826;2023-09-18T10:25:12;24.10;99.90
44166;DHT22;30476;53.468;9.826;2023-09-18T10:27:49;24.20;99.90
44166;DHT22;30476;53.468;9.826;2023-09-18T10:30:16;24.10;99.90
44166;DHT22;30476;53.468;9.826;2023-09-18T10:32:45;24.20;99.90
44166;DHT22;30476;53.468;9.826;2023-09-18T10:35:14;24.20;99.90
44166;DHT22;30476;53.468;9.826;2023-09-18T10:37:45;24.30;99.90
44166;DHT22;30476;53.468;9.826;2023-09-18T10:40:12;24.30;99.90
44166;DHT22;30476;53.468;9.826;2023-09-18T10:42:40;24.30;99.90
44166;DHT22;30476;53.468;9.826;2023-09-18T10:45:11;24.40;99.90
44166;DHT22;30476;53.468;9.826;2023-09-18T10:47:39;24.40;99.90
44166;DHT22;30476;53.468;9.826;2023-09-18T10:50:06;24.40;99.90
44166;DHT22;30476;53.468;9.826;2023-09-18T10:52:43;24.40;99.90
44166;DHT22;30476;53.468;9.826;2023-09-18T10:55:12;24.50;99.90
44166;DHT22;30476;53.468;9.826;2023-09-18T10:57:53;24.60;99.90
44166;DHT22;30476;53.468;9.826;2023-09-18T11:00:19;24.60;99.90
44166;DHT22;30476;53.468;9.826;2023-09-18T11:02:51;24.70;99.90
44166;DHT22;30476;53.468;9.826;2023-09-18T11:05:29;24.80;99.90
44166;DHT22;30476;53.468;9.826;2023-09-18T11:08:28;24.80;99.90
44166;DHT22;30476;53.468;9.826;2023-09-18T11:13:44;25.10;99.90
44166;DHT22;30476;53.468;9.826;2023-09-18T11:21:27;25.10;99.90
44166;DHT22;30476;53.468;9.826;2023-09-18T11:24:07;25.10;99.90
44166;DHT22;30476;53.468;9.826;2023-09-18T11:26:40;25.10;99.90
44166;DHT22;30476;53.468;9.826;2023-09-18T11:29:13;25.10;99.90
44166;DHT22;30476;53.468;9.826;2023-09-18T11:31:43;25.10;99.90
44166;DHT22;30476;53.468;9.826;2023-09-18T11:34:14;25.10;99.90
44166;DHT22;30476;53.468;9.826;2023-09-18T11:36:40;25.00;99.90
44166;DHT22;30476;53.468;9.826;2023-09-18T11:39:06;25.00;99.90
44166;DHT22;30476;53.468;9.826;2023-09-18T11:41:34;25.00;99.90
44166;DHT22;30476;53.468;9.826;2023-09-18T11:46:40;25.00;99.90
44166;DHT22;30476;53.468;9.826;2023-09-18T11:49:10;25.00;99.90
44166;DHT22;30476;53.468;9.826;2023-09-18T11:51:37;24.90;99.90
44166;DHT22;30476;53.468;9.826;2023-09-18T11:54:03;24.90;99.90
44166;DHT22;30476;53.468;9.826;2023-09-18T11:56:32;24.90;99.90
44166;DHT22;30476;53.468;9.826;2023-09-18T11:58:58;24.80;99.90
44166;DHT22;30476;53.468;9.826;2023-09-18T12:01:25;24.80;99.90
44166;DHT22;30476;53.468;9.826;2023-09-18T12:03:53;24.80;99.90
44166;DHT22;30476;53.468;9.826;2023-09-18T12:06:20;24.90;99.90
44166;DHT22;30476;53.468;9.826;2023-09-18T12:08:46;24.80;99.90
44166;DHT22;30476;53.468;9.826;2023-09-18T12:11:12;24.90;99.90
44166;DHT22;30476;53.468;9.826;2023-09-18T12:13:43;24.90;99.90
44166;DHT22;30476;53.468;9.826;2023-09-18T12:16:09;24.90;99.90
44166;DHT22;30476;53.468;9.826;2023-09-18T12:18:36;24.90;99.90
44166;DHT22;30476;53.468;9.826;2023-09-18T12:21:06;25.00;99.90
44166;DHT22;30476;53.468;9.826;2023-09-18T12:23:42;25.10;99.90
44166;DHT22;30476;53.468;9.826;2023-09-18T12:26:11;25.20;99.90
44166;DHT22;30476;53.468;9.826;2023-09-18T12:28:40;25.20;99.90
44166;DHT22;30476;53.468;9.826;2023-09-18T12:31:09;25.30;99.90
44166;DHT22;30476;53.468;9.826;2023-09-18T12:33:36;25.30;99.90
44166;DHT22;30476;53.468;9.826;2023-09-18T12:36:03;25.40;99.90
44166;DHT22;30476;53.468;9.826;2023-09-18T12:38:30;25.40;99.90
44166;DHT22;30476;53.468;9.826;2023-09-18T12:40:57;25.50;99.90
44166;DHT22;30476;53.468;9.826;2023-09-18T12:46:01;25.60;99.90
44166;DHT22;30476;53.468;9.826;2023-09-18T12:48:29;25.60;99.90
44166;DHT22;30476;53.468;9.826;2023-09-18T12:50:54;25.60;99.90
44166;DHT22;30476;53.468;9.826;2023-09-18T12:53:22;25.70;99.90
44166;DHT22;30476;53.468;9.826;2023-09-18T12:55:49;25.80;99.90
44166;DHT22;30476;53.468;9.826;2023-09-18T12:58:19;25.90;99.90
44166;DHT22;30476;53.468;9.826;2023-09-18T13:00:49;26.00;99.90
44166;DHT22;30476;53.468;9.826;2023-09-18T13:03:15;26.10;99.90
44166;DHT22;30476;53.468;9.826;2023-09-18T13:05:41;26.20;99.90
44166;DHT22;30476;53.468;9.826;2023-09-18T13:08:07;26.30;99.90
44166;DHT22;30476;53.468;9.826;2023-09-18T13:10:47;26.50;99.90
44166;DHT22;30476;53.468;9.826;2023-09-18T13:13:19;26.60;99.90
44166;DHT22;30476;53.468;9.826;2023-09-18T13:15:45;26.60;99.90
44166;DHT22;30476;53.468;9.826;2023-09-18T13:18:13;26.60;99.90
44166;DHT22;30476;53.468;9.826;2023-09-18T13:20:40;26.60;99.90
44166;DHT22;30476;53.468;9.826;2023-09-18T13:23:08;26.60;99.90
44166;DHT22;30476;53.468;9.826;2023-09-18T13:25:36;26.60;99.70
44166;DHT22;30476;53.468;9.826;2023-09-18T13:28:05;26.50;99.80
44166;DHT22;30476;53.468;9.826;2023-09-18T13:30:32;26.40;99.80
44166;DHT22;30476;53.468;9.826;2023-09-18T13:33:11;26.30;99.80
44166;DHT22;30476;53.468;9.826;2023-09-18T13:35:42;26.30;99.90
44166;DHT22;30476;53.468;9.826;2023-09-18T13:38:08;26.20;99.90
44166;DHT22;30476;53.468;9.826;2023-09-18T13:40:39;26.10;99.90
44166;DHT22;30476;53.468;9.826;2023-09-18T13:43:05;26.00;99.90
44166;DHT22;30476;53.468;9.826;2023-09-18T13:45:32;25.90;99.90
44166;DHT22;30476;53.468;9.826;2023-09-18T13:47:58;25.90;99.90
44166;DHT22;30476;53.468;9.826;2023-09-18T13:50:25;25.80;99.90
44166;DHT22;30476;53.468;9.826;2023-09-18T13:52:50;25.70;99.90
44166;DHT22;30476;53.468;9.826;2023-09-18T13:55:16;25.70;99.90
44166;DHT22;30476;53.468;9.826;2023-09-18T13:57:42;25.70;99.90
44166;DHT22;30476;53.468;9.826;2023-09-18T14:00:08;25.60;99.90
44166;DHT22;30476;53.468;9.826;2023-09-18T14:02:41;25.50;99.90
44166;DHT22;30476;53.468;9.826;2023-09-18T14:05:07;25.50;99.90
44166;DHT22;30476;53.468;9.826;2023-09-18T14:07:35;25.40;99.90
44166;DHT22;30476;53.468;9.826;2023-09-18T14:10:01;25.40;99.90
44166;DHT22;30476;53.468;9.826;2023-09-18T14:12:30;25.30;99.90
44166;DHT22;30476;53.468;9.826;2023-09-18T14:14:56;25.30;99.90
44166;DHT22;30476;53.468;9.826;2023-09-18T14:17:22;25.30;99.90
44166;DHT22;30476;53.468;9.826;2023-09-18T14:19:48;25.20;99.90
44166;DHT22;30476;53.468;9.826;2023-09-18T14:22:14;25.20;99.90
44166;DHT22;30476;53.468;9.826;2023-09-18T14:24:40;25.20;99.90
44166;DHT22;30476;53.468;9.826;2023-09-18T14:27:06;25.20;99.90
44166;DHT22;30476;53.468;9.826;2023-09-18T14:29:36;25.20;99.90
44166;DHT22;30476;53.468;9.826;2023-09-18T14:32:02;25.20;99.90
44166;DHT22;30476;53.468;9.826;2023-09-18T14:34:30;25.20;99.90
44166;DHT22;30476;53.468;9.826;2023-09-18T14:36:56;25.20;99.90
44166;DHT22;30476;53.468;9.826;2023-09-18T14:39:22;25.20;99.90
44166;DHT22;30476;53.468;9.826;2023-09-18T14:41:48;25.20;99.90
44166;DHT22;30476;53.468;9.826;2023-09-18T14:44:15;25.20;99.90
44166;DHT22;30476;53.468;9.826;2023-09-18T14:46:41;25.20;99.90
44166;DHT22;30476;53.468;9.826;2023-09-18T14:49:07;25.10;99.90
44166;DHT22;30476;53.468;9.826;2023-09-18T14:51:34;25.10;99.90
44166;DHT22;30476;53.468;9.826;2023-09-18T14:54:00;25.10;99.90
44166;DHT22;30476;53.468;9.826;2023-09-18T14:56:26;25.10;99.90
44166;DHT22;30476;53.468;9.826;2023-09-18T14:58:53;25.10;99.90
44166;DHT22;30476;53.468;9.826;2023-09-18T15:01:23;25.10;99.90
44166;DHT22;30476;53.468;9.826;2023-09-18T15:03:50;25.10;99.90
44166;DHT22;30476;53.468;9.826;2023-09-18T15:06:16;25.10;99.90
44166;DHT22;30476;53.468;9.826;2023-09-18T15:08:42;25.00;99.90
44166;DHT22;30476;53.468;9.826;2023-09-18T15:11:08;25.00;99.90
44166;DHT22;30476;53.468;9.826;2023-09-18T15:13:34;25.00;99.90
44166;DHT22;30476;53.468;9.826;2023-09-18T15:16:01;25.00;99.90
44166;DHT22;30476;53.468;9.826;2023-09-18T15:18:27;25.00;99.90
44166;DHT22;30476;53.468;9.826;2023-09-18T15:20:53;25.00;99.90
44166;DHT22;30476;53.468;9.826;2023-09-18T15:23:22;25.00;99.90
44166;DHT22;30476;53.468;9.826;2023-09-18T15:25:49;25.00;99.90
44166;DHT22;30476;53.468;9.826;2023-09-18T15:28:16;25.00;99.90
44166;DHT22;30476;53.468;9.826;2023-09-18T15:30:45;24.90;99.90
44166;DHT22;30476;53.468;9.826;2023-09-18T15:33:11;24.90;99.90
44166;DHT22;30476;53.468;9.826;2023-09-18T15:35:37;24.90;99.90
44166;DHT22;30476;53.468;9.826;2023-09-18T15:38:03;25.00;99.90
44166;DHT22;30476;53.468;9.826;2023-09-18T15:40:29;25.00;99.90
44166;DHT22;30476;53.468;9.826;2023-09-18T15:42:55;24.90;99.90
44166;DHT22;30476;53.468;9.826;2023-09-18T15:45:20;24.90;99.90
44166;DHT22;30476;53.468;9.826;2023-09-18T15:47:46;24.90;99.90